Time;durP1;ratioP1;P1;durP2;ratioP2;P2;SDS_P1;SDS_P2;PMS_P1;PMS_P2;Temp;Humidity;BMP_temperature;BMP_pressure;BME280_temperature;BME280_humidity;BME280_pressure;Samples;Min_cycle;Max_cycle;Signal;HPM_P1;HPM_P2
2022/03/07 00:00:15;;;;;;;9.63;5.47;;;2.60;99.90;;;;;;5076336;28;20435;-90
2022/03/07 00:02:48;;;;;;;7.53;4.83;;;2.60;99.90;;;;;;5076524;28;20488;-91
2022/03/07 00:05:16;;;;;;;5.73;5.07;;;2.60;99.90;;;;;;5076382;28;20434;-87
2022/03/07 00:07:46;;;;;;;7.17;4.97;;;2.60;99.90;;;;;;5076146;28;20836;-86
2022/03/07 00:10:26;;;;;;;6.27;5.10;;;2.50;99.90;;;;;;5075984;28;20988;-90
2022/03/07 00:12:54;;;;;;;6.73;5.50;;;2.40;99.90;;;;;;5076582;28;20436;-87
2022/03/07 00:15:20;;;;;;;6.00;5.40;;;2.40;99.90;;;;;;5077452;28;20437;-90
2022/03/07 00:17:53;;;;;;;6.27;5.47;;;2.50;99.90;;;;;;5077316;28;20454;-90
2022/03/07 00:20:20;;;;;;;6.97;5.23;;;2.50;99.90;;;;;;5075903;28;20438;-92
2022/03/07 00:22:48;;;;;;;5.97;5.37;;;2.30;99.90;;;;;;5078051;28;20450;-79
2022/03/07 00:25:19;;;;;;;5.50;4.90;;;2.10;99.90;;;;;;5088855;28;20419;-89
2022/03/07 00:27:48;;;;;;;7.20;5.90;;;2.20;99.90;;;;;;5088034;28;20550;-81
2022/03/07 00:30:20;;;;;;;9.80;6.10;;;2.30;99.90;;;;;;5088241;28;20477;-89
2022/03/07 00:32:47;;;;;;;7.80;5.20;;;2.30;99.90;;;;;;5088877;28;20458;-81
2022/03/07 00:35:20;;;;;;;7.37;6.33;;;2.30;99.90;;;;;;5082532;28;20437;-86
2022/03/07 00:37:51;;;;;;;6.87;5.33;;;2.30;99.90;;;;;;5075933;28;20434;-85
2022/03/07 00:40:34;;;;;;;6.95;6.32;;;2.20;99.90;;;;;;5075342;28;20434;-90
2022/03/07 00:43:08;;;;;;;7.37;6.30;;;2.30;99.90;;;;;;5075833;28;20187;-88
2022/03/07 00:45:44;;;;;;;8.07;6.17;;;2.30;99.90;;;;;;5075436;28;20854;-89
2022/03/07 00:48:26;;;;;;;6.53;5.40;;;2.40;99.90;;;;;;5075111;28;20482;-89
2022/03/07 00:50:53;;;;;;;8.67;5.73;;;2.50;99.90;;;;;;5074867;28;20570;-90
2022/03/07 00:53:28;;;;;;;7.37;6.03;;;2.40;99.90;;;;;;5075266;28;20438;-90
2022/03/07 00:55:58;;;;;;;13.13;6.17;;;2.30;99.90;;;;;;5075413;28;20461;-91
2022/03/07 00:58:28;;;;;;;8.60;6.00;;;2.20;99.90;;;;;;5074914;28;20431;-91
2022/03/07 01:01:00;;;;;;;6.47;5.77;;;2.10;99.90;;;;;;5074969;28;20431;-92
2022/03/07 01:04:09;;;;;;;9.93;6.37;;;1.90;99.90;;;;;;5075246;28;20438;-91
2022/03/07 01:06:42;;;;;;;7.53;6.70;;;1.90;99.90;;;;;;5073803;28;20432;-90
2022/03/07 01:09:16;;;;;;;7.83;6.17;;;2.10;99.90;;;;;;5075044;28;20186;-92
2022/03/07 01:11:58;;;;;;;6.37;5.60;;;2.10;99.90;;;;;;5074903;28;20486;-90
2022/03/07 01:14:27;;;;;;;7.13;5.83;;;2.00;99.90;;;;;;5074976;28;20435;-90
2022/03/07 01:16:54;;;;;;;7.70;6.70;;;1.90;99.90;;;;;;5074946;28;20473;-89
2022/03/07 01:19:31;;;;;;;7.57;6.77;;;2.00;99.90;;;;;;5074880;28;20445;-90
2022/03/07 01:22:08;;;;;;;6.97;6.33;;;2.00;99.90;;;;;;5060778;28;20462;-92
2022/03/07 01:24:42;;;;;;;9.60;6.40;;;2.00;99.90;;;;;;5054289;28;20434;-90
2022/03/07 01:27:09;;;;;;;6.67;5.93;;;1.90;99.90;;;;;;5054658;28;20431;-88
2022/03/07 01:29:36;;;;;;;8.52;6.82;;;2.00;99.90;;;;;;5054545;28;20430;-87
2022/03/07 01:32:09;;;;;;;8.27;7.03;;;2.00;99.90;;;;;;5054178;28;20202;-93
2022/03/07 01:34:36;;;;;;;8.40;6.93;;;1.90;99.90;;;;;;5054211;28;20442;-89
2022/03/07 01:37:04;;;;;;;7.33;6.60;;;1.80;99.90;;;;;;5054317;28;20439;-90
2022/03/07 01:39:36;;;;;;;7.70;6.93;;;1.70;99.90;;;;;;5054877;28;20781;-89
2022/03/07 01:42:11;;;;;;;11.97;6.77;;;1.70;99.90;;;;;;5054396;28;20440;-92
2022/03/07 01:44:39;;;;;;;9.40;7.13;;;1.70;99.90;;;;;;5053964;28;20789;-90
2022/03/07 01:47:12;;;;;;;9.00;6.97;;;1.70;99.90;;;;;;5054017;28;20432;-90
2022/03/07 01:49:39;;;;;;;13.23;7.40;;;1.60;99.90;;;;;;5054288;28;20424;-93
2022/03/07 01:52:12;;;;;;;12.37;7.23;;;1.50;99.90;;;;;;5053389;28;20495;-89
2022/03/07 01:54:45;;;;;;;13.43;8.52;;;1.40;99.90;;;;;;5054106;28;20504;-91
2022/03/07 01:57:16;;;;;;;9.63;7.53;;;1.40;99.90;;;;;;5054077;28;20225;-91
2022/03/07 01:59:46;;;;;;;11.00;7.50;;;1.30;99.90;;;;;;5052993;28;20887;-89
2022/03/07 02:02:19;;;;;;;10.93;7.87;;;1.40;99.90;;;;;;5054137;28;20450;-92
2022/03/07 02:04:51;;;;;;;9.83;7.60;;;1.40;99.90;;;;;;5054075;28;20428;-92
2022/03/07 02:07:18;;;;;;;8.23;7.17;;;1.50;99.90;;;;;;5053997;28;20435;-92
2022/03/07 02:09:51;;;;;;;10.30;7.83;;;1.30;99.90;;;;;;5053676;28;20443;-91
2022/03/07 02:12:25;;;;;;;10.40;7.20;;;1.30;99.90;;;;;;5054074;28;20432;-89
2022/03/07 02:14:53;;;;;;;11.50;8.73;;;1.30;99.90;;;;;;5053901;28;20443;-90
2022/03/07 02:17:23;;;;;;;14.90;8.60;;;1.40;99.90;;;;;;5053954;28;20467;-91
2022/03/07 02:19:53;;;;;;;13.77;9.70;;;1.30;99.90;;;;;;5053646;28;20425;-90
2022/03/07 02:22:27;;;;;;;18.93;10.53;;;1.40;99.90;;;;;;5053361;28;20214;-92
2022/03/07 02:24:54;;;;;;;25.30;12.40;;;1.20;99.90;;;;;;5054039;28;20432;-90
2022/03/07 02:27:26;;;;;;;18.13;9.57;;;1.20;99.90;;;;;;5053720;28;20436;-91
2022/03/07 02:29:55;;;;;;;18.70;9.30;;;1.20;99.90;;;;;;5054028;28;20424;-85
2022/03/07 02:32:28;;;;;;;16.07;8.83;;;1.00;99.90;;;;;;5053827;28;20447;-90
2022/03/07 02:35:00;;;;;;;13.50;8.70;;;1.10;99.90;;;;;;5054135;28;20435;-85
2022/03/07 02:37:45;;;;;;;13.63;8.90;;;1.00;99.90;;;;;;5053963;28;20431;-91
2022/03/07 02:40:21;;;;;;;12.43;8.30;;;1.10;99.90;;;;;;5053796;28;20431;-89
2022/03/07 02:42:56;;;;;;;15.37;9.30;;;0.90;99.90;;;;;;5053960;28;20526;-89
2022/03/07 02:45:29;;;;;;;20.77;12.32;;;1.00;99.90;;;;;;5052869;28;20460;-89
2022/03/07 02:48:01;;;;;;;18.97;11.83;;;1.10;99.90;;;;;;5053724;28;20563;-90
2022/03/07 02:50:28;;;;;;;20.17;10.80;;;1.00;99.90;;;;;;5053346;28;20467;-91
2022/03/07 02:52:59;;;;;;;22.30;11.53;;;0.90;99.90;;;;;;5053353;28;20470;-91
2022/03/07 02:55:35;;;;;;;27.20;10.73;;;1.10;99.90;;;;;;5069065;28;20464;-92
2022/03/07 02:58:01;;;;;;;20.57;9.23;;;1.10;99.90;;;;;;5073050;28;20462;-90
2022/03/07 03:00:34;;;;;;;17.60;10.13;;;1.10;99.90;;;;;;5073500;28;20442;-92
2022/03/07 03:03:07;;;;;;;21.63;11.47;;;1.20;99.90;;;;;;5073217;28;20435;-90
2022/03/07 03:05:37;;;;;;;22.10;11.30;;;1.20;99.90;;;;;;5073439;28;20442;-91
2022/03/07 03:08:08;;;;;;;14.67;9.80;;;1.00;99.90;;;;;;5073629;28;20431;-90
2022/03/07 03:10:41;;;;;;;18.65;12.07;;;1.10;99.90;;;;;;5074329;28;20447;-88
2022/03/07 03:13:17;;;;;;;15.40;9.37;;;1.10;99.90;;;;;;5077022;28;20651;-87
2022/03/07 03:15:43;;;;;;;12.43;8.80;;;1.20;99.90;;;;;;5077194;28;20434;-89
2022/03/07 03:18:13;;;;;;;12.60;8.47;;;1.20;99.90;;;;;;5077042;28;20466;-90
2022/03/07 03:20:44;;;;;;;10.23;8.57;;;1.20;99.90;;;;;;5076940;28;20431;-92
2022/03/07 03:23:18;;;;;;;11.67;7.90;;;1.20;99.90;;;;;;5067973;28;20435;-92
2022/03/07 03:25:56;;;;;;;11.50;8.73;;;1.10;99.90;;;;;;5057183;28;20435;-91
2022/03/07 03:28:24;;;;;;;9.07;7.83;;;1.00;99.90;;;;;;5057119;28;20434;-90
2022/03/07 03:30:59;;;;;;;12.13;8.30;;;1.10;99.90;;;;;;5057042;28;20471;-89
2022/03/07 03:33:32;;;;;;;11.60;9.07;;;0.90;99.90;;;;;;5056614;28;20454;-86
2022/03/07 03:36:05;;;;;;;11.70;10.00;;;1.10;99.90;;;;;;5056004;28;20440;-88
2022/03/07 03:38:33;;;;;;;9.87;8.93;;;1.10;99.90;;;;;;5056650;28;20577;-89
2022/03/07 03:41:07;;;;;;;12.30;9.30;;;1.10;99.90;;;;;;5056260;28;20451;-88
2022/03/07 03:43:36;;;;;;;10.10;8.37;;;1.00;99.90;;;;;;5056960;28;20436;-90
2022/03/07 03:46:09;;;;;;;10.80;8.77;;;0.80;99.90;;;;;;5056857;28;20436;-91
2022/03/07 03:48:48;;;;;;;12.60;7.87;;;0.70;99.90;;;;;;5056641;28;20427;-90
2022/03/07 03:51:15;;;;;;;11.60;8.10;;;0.80;99.90;;;;;;5056575;28;20491;-91
2022/03/07 03:53:46;;;;;;;11.17;8.37;;;0.80;99.90;;;;;;5056799;28;20447;-92
2022/03/07 03:56:13;;;;;;;11.27;8.50;;;0.80;99.90;;;;;;5056934;28;20444;-91
2022/03/07 03:58:45;;;;;;;16.53;10.13;;;0.80;99.90;;;;;;5057194;28;20432;-90
2022/03/07 04:01:18;;;;;;;15.87;9.40;;;0.80;99.90;;;;;;5056625;28;20806;-85
2022/03/07 04:03:51;;;;;;;13.57;9.50;;;0.60;99.90;;;;;;5056751;28;20961;-91
2022/03/07 04:06:23;;;;;;;16.00;9.27;;;0.80;99.90;;;;;;5056953;28;20428;-91
2022/03/07 04:09:13;;;;;;;12.07;9.20;;;0.70;99.90;;;;;;5056799;28;20910;-91
2022/03/07 04:11:41;;;;;;;11.63;9.03;;;0.80;99.90;;;;;;5057002;28;20483;-88
2022/03/07 04:14:09;;;;;;;12.43;8.20;;;0.90;99.90;;;;;;5056946;28;20937;-86
2022/03/07 04:16:39;;;;;;;12.10;8.13;;;1.00;99.90;;;;;;5056589;28;20466;-86
2022/03/07 04:19:20;;;;;;;10.87;8.03;;;0.90;99.90;;;;;;5057063;28;20442;-87
2022/03/07 04:21:47;;;;;;;10.67;8.73;;;0.80;99.90;;;;;;5055889;28;20428;-89
2022/03/07 04:24:21;;;;;;;11.20;8.00;;;0.70;99.90;;;;;;5069345;28;20449;-89
2022/03/07 04:26:48;;;;;;;10.03;8.73;;;0.70;99.90;;;;;;5076436;28;20470;-87
2022/03/07 04:29:17;;;;;;;9.13;8.07;;;0.80;99.90;;;;;;5077072;28;20442;-89
2022/03/07 04:31:45;;;;;;;9.13;7.90;;;0.80;99.90;;;;;;5075753;28;20478;-78
2022/03/07 04:34:13;;;;;;;13.17;8.50;;;0.80;99.90;;;;;;5072524;28;20461;-90
2022/03/07 04:36:41;;;;;;;10.20;8.53;;;0.70;99.90;;;;;;5062323;28;20479;-74
2022/03/07 04:39:10;;;;;;;13.97;8.27;;;0.80;99.90;;;;;;5054839;28;20447;-76
2022/03/07 04:41:40;;;;;;;10.60;8.10;;;0.70;99.90;;;;;;5054654;28;20447;-76
2022/03/07 04:44:08;;;;;;;12.13;8.37;;;0.80;99.90;;;;;;5054650;28;20458;-74
2022/03/07 04:46:34;;;;;;;9.43;8.40;;;0.80;99.90;;;;;;5054065;28;20933;-75
2022/03/07 04:49:01;;;;;;;9.47;8.47;;;0.70;99.90;;;;;;5054522;28;20443;-73
2022/03/07 04:51:28;;;;;;;13.38;11.88;;;0.70;99.90;;;;;;5052200;28;20453;-75
2022/03/07 04:53:55;;;;;;;10.57;9.17;;;0.70;99.90;;;;;;5053662;28;20199;-88
2022/03/07 04:56:22;;;;;;;10.47;8.40;;;0.70;99.90;;;;;;5054231;28;20816;-75
2022/03/07 04:58:50;;;;;;;12.90;9.27;;;0.80;99.90;;;;;;5055585;28;20795;-90
2022/03/07 05:01:18;;;;;;;11.93;9.43;;;0.80;99.90;;;;;;5056102;28;20444;-78
2022/03/07 05:03:50;;;;;;;12.70;9.70;;;0.70;99.90;;;;;;5055946;28;20463;-91
2022/03/07 05:06:17;;;;;;;15.93;8.90;;;0.70;99.90;;;;;;5055912;28;20450;-86
2022/03/07 05:08:44;;;;;;;12.47;8.67;;;0.60;99.90;;;;;;5055271;28;20504;-92
2022/03/07 05:11:11;;;;;;;11.83;9.07;;;0.50;99.90;;;;;;5055079;28;20471;-86
2022/03/07 05:13:38;;;;;;;11.93;8.70;;;0.60;99.90;;;;;;5055457;28;20443;-72
2022/03/07 05:16:06;;;;;;;12.30;10.90;;;0.50;99.90;;;;;;5054047;28;20436;-76
2022/03/07 05:18:33;;;;;;;14.27;9.23;;;0.40;99.90;;;;;;5054843;28;20269;-82
2022/03/07 05:21:00;;;;;;;9.83;8.83;;;0.50;99.90;;;;;;5054176;28;20454;-74
2022/03/07 05:23:27;;;;;;;11.67;8.53;;;0.60;99.90;;;;;;5057491;28;20459;-84
2022/03/07 05:25:54;;;;;;;14.10;8.43;;;0.60;99.90;;;;;;5073896;28;20434;-73
2022/03/07 05:28:20;;;;;;;11.20;9.53;;;0.50;99.90;;;;;;5073692;28;20453;-74
2022/03/07 05:30:48;;;;;;;10.17;9.07;;;0.50;99.90;;;;;;5073821;28;20423;-76
2022/03/07 05:33:16;;;;;;;12.63;8.73;;;0.50;99.90;;;;;;5073758;28;20490;-77
2022/03/07 05:35:42;;;;;;;12.77;9.37;;;0.50;99.90;;;;;;5074134;28;20427;-92
2022/03/07 05:38:09;;;;;;;13.10;8.83;;;0.40;99.90;;;;;;5074222;28;20443;-91
2022/03/07 05:40:36;;;;;;;10.67;9.17;;;0.40;99.90;;;;;;5074383;28;20817;-83
2022/03/07 05:43:03;;;;;;;13.53;9.60;;;0.40;99.90;;;;;;5073960;28;20438;-74
2022/03/07 05:45:30;;;;;;;13.50;9.33;;;0.20;99.90;;;;;;5073211;28;20450;-73
2022/03/07 05:47:57;;;;;;;11.00;9.50;;;0.20;99.90;;;;;;5073367;28;20946;-81
2022/03/07 05:50:25;;;;;;;12.63;8.83;;;0.20;99.90;;;;;;5073712;28;20453;-74
2022/03/07 05:52:53;;;;;;;13.57;9.83;;;0.40;99.90;;;;;;5073158;28;20511;-79
2022/03/07 05:55:20;;;;;;;11.73;10.07;;;0.30;99.90;;;;;;5073443;28;20439;-77
2022/03/07 05:57:46;;;;;;;12.13;10.13;;;0.30;99.90;;;;;;5073250;28;20450;-76
2022/03/07 06:00:14;;;;;;;12.63;9.80;;;0.20;99.90;;;;;;5072361;28;20442;-75
2022/03/07 06:02:41;;;;;;;12.70;10.03;;;0.20;99.90;;;;;;5067218;28;20458;-76
2022/03/07 06:05:09;;;;;;;15.07;11.75;;;0.00;99.90;;;;;;5072291;28;20432;-76
2022/03/07 06:07:37;;;;;;;16.07;10.73;;;0.00;99.90;;;;;;5071668;28;20209;-80
2022/03/07 06:10:06;;;;;;;17.23;11.27;;;0.20;99.90;;;;;;5072970;28;20443;-76
2022/03/07 06:12:33;;;;;;;17.30;11.10;;;0.20;99.90;;;;;;5072372;28;21054;-79
2022/03/07 06:15:03;;;;;;;15.03;10.87;;;0.20;99.90;;;;;;5072821;28;20767;-75
2022/03/07 06:17:30;;;;;;;17.57;10.87;;;-0.10;99.90;;;;;;5072863;28;20501;-75
2022/03/07 06:19:57;;;;;;;13.43;10.47;;;-0.10;99.90;;;;;;5072616;28;20465;-77
2022/03/07 06:22:24;;;;;;;14.20;11.20;;;-0.20;99.90;;;;;;5074077;28;20451;-91
2022/03/07 06:24:52;;;;;;;17.03;11.57;;;-0.10;99.90;;;;;;5074529;28;20897;-83
2022/03/07 06:27:19;;;;;;;14.10;10.97;;;-0.20;99.90;;;;;;5073073;28;20438;-89
2022/03/07 06:29:46;;;;;;;19.40;10.77;;;-0.20;99.90;;;;;;5074153;28;20435;-74
2022/03/07 06:32:12;;;;;;;15.47;11.10;;;-0.10;99.90;;;;;;5073623;28;20500;-77
2022/03/07 06:34:40;;;;;;;12.87;10.93;;;-0.10;99.90;;;;;;5073576;28;20447;-75
2022/03/07 06:37:06;;;;;;;14.53;11.03;;;-0.10;99.90;;;;;;5073657;28;20449;-74
2022/03/07 06:39:34;;;;;;;15.50;11.57;;;0.00;99.90;;;;;;5073527;28;20443;-77
2022/03/07 06:42:03;;;;;;;15.50;11.60;;;0.00;99.90;;;;;;5073310;28;20435;-90
2022/03/07 06:44:30;;;;;;;14.03;11.63;;;0.10;99.90;;;;;;5072914;28;20427;-79
2022/03/07 06:46:57;;;;;;;20.60;12.27;;;0.10;99.90;;;;;;5076505;28;20445;-74
2022/03/07 06:49:24;;;;;;;19.10;11.87;;;0.10;99.90;;;;;;5077505;28;20430;-91
2022/03/07 06:51:50;;;;;;;14.80;11.57;;;0.20;99.90;;;;;;5076597;28;20489;-75
2022/03/07 06:54:17;;;;;;;15.17;11.00;;;0.10;99.90;;;;;;5076640;28;20449;-87
2022/03/07 06:56:44;;;;;;;18.93;11.93;;;0.10;99.90;;;;;;5076122;28;20454;-79
2022/03/07 06:59:12;;;;;;;18.13;11.70;;;0.00;99.90;;;;;;5076679;28;20443;-74
2022/03/07 07:01:39;;;;;;;15.63;11.77;;;0.00;99.90;;;;;;5076605;28;20461;-75
2022/03/07 07:04:07;;;;;;;20.93;11.43;;;0.00;99.90;;;;;;5076076;28;20473;-79
2022/03/07 07:06:33;;;;;;;14.23;11.23;;;0.10;99.90;;;;;;5075956;28;20445;-74
2022/03/07 07:09:01;;;;;;;17.40;11.47;;;0.20;99.90;;;;;;5076844;28;20438;-79
2022/03/07 07:11:28;;;;;;;21.03;12.67;;;0.40;99.90;;;;;;5075645;28;20423;-77
2022/03/07 07:13:55;;;;;;;17.70;12.97;;;0.40;99.90;;;;;;5075765;28;20439;-78
2022/03/07 07:16:23;;;;;;;18.33;11.87;;;0.40;99.90;;;;;;5076002;28;20806;-78
2022/03/07 07:18:51;;;;;;;18.87;11.80;;;0.40;99.90;;;;;;5076284;28;20435;-82
2022/03/07 07:21:18;;;;;;;17.15;13.57;;;0.40;99.90;;;;;;5075670;28;20421;-75
2022/03/07 07:23:45;;;;;;;16.13;12.70;;;0.40;99.90;;;;;;5079626;28;20208;-76
2022/03/07 07:26:11;;;;;;;16.10;12.60;;;0.50;99.90;;;;;;5080281;28;20442;-79
2022/03/07 07:28:38;;;;;;;14.47;11.47;;;0.40;99.90;;;;;;5075534;28;20805;-75
2022/03/07 07:31:05;;;;;;;17.63;12.00;;;0.50;99.90;;;;;;5075900;28;20435;-76
2022/03/07 07:33:33;;;;;;;13.43;11.03;;;0.40;99.90;;;;;;5075215;28;20490;-78
2022/03/07 07:36:00;;;;;;;15.47;10.80;;;0.50;99.90;;;;;;5081458;28;20446;-73
2022/03/07 07:38:27;;;;;;;13.33;10.70;;;0.50;99.90;;;;;;5094651;28;20494;-74
2022/03/07 07:40:55;;;;;;;17.43;11.13;;;0.60;99.90;;;;;;5094537;28;20441;-74
2022/03/07 07:43:22;;;;;;;17.10;10.30;;;0.70;99.90;;;;;;5095624;28;20970;-74
2022/03/07 07:45:49;;;;;;;13.98;11.32;;;0.80;99.90;;;;;;5095327;28;20411;-74
2022/03/07 07:48:16;;;;;;;17.47;10.53;;;0.90;99.90;;;;;;5095624;28;20205;-77
2022/03/07 07:50:44;;;;;;;16.20;10.93;;;0.90;99.90;;;;;;5095289;28;20441;-73
2022/03/07 07:53:11;;;;;;;13.33;10.90;;;1.00;99.90;;;;;;5095349;28;20492;-74
2022/03/07 07:55:37;;;;;;;15.20;10.07;;;1.10;99.90;;;;;;5076638;28;20933;-73
2022/03/07 07:58:04;;;;;;;14.70;10.30;;;1.10;99.90;;;;;;5073024;28;20442;-74
2022/03/07 08:00:31;;;;;;;11.60;10.33;;;1.10;99.90;;;;;;5089250;28;20442;-75
2022/03/07 08:02:58;;;;;;;13.87;10.43;;;1.10;99.90;;;;;;5095552;28;20449;-74
2022/03/07 08:05:25;;;;;;;15.33;10.10;;;1.10;99.90;;;;;;5095560;28;20805;-74
2022/03/07 08:07:53;;;;;;;15.10;9.80;;;1.10;99.90;;;;;;5095089;28;20448;-74
2022/03/07 08:10:20;;;;;;;8.70;7.83;;;1.10;99.90;;;;;;5095167;28;20441;-79
2022/03/07 08:12:47;;;;;;;16.27;9.30;;;1.20;99.90;;;;;;5083463;28;20466;-74
2022/03/07 08:15:14;;;;;;;12.47;9.13;;;1.30;99.90;;;;;;5088630;28;20446;-73
2022/03/07 08:17:46;;;;;;;11.20;9.63;;;1.30;99.90;;;;;;5094611;28;20462;-76
2022/03/07 08:20:14;;;;;;;11.03;8.57;;;1.30;99.90;;;;;;5095499;28;20466;-74
2022/03/07 08:22:41;;;;;;;15.30;8.67;;;1.50;99.90;;;;;;5095123;28;20441;-74
2022/03/07 08:25:10;;;;;;;14.57;8.13;;;1.60;99.90;;;;;;5094577;28;20944;-77
2022/03/07 08:27:37;;;;;;;10.50;7.93;;;1.60;99.90;;;;;;5074947;28;20430;-75
2022/03/07 08:30:07;;;;;;;8.83;7.47;;;1.60;99.90;;;;;;5074874;28;20439;-83
2022/03/07 08:32:35;;;;;;;9.17;7.60;;;1.60;99.90;;;;;;5061322;28;20574;-82
2022/03/07 08:35:04;;;;;;;10.13;7.13;;;1.80;99.90;;;;;;5054567;28;20451;-83
2022/03/07 08:37:31;;;;;;;8.43;7.50;;;1.90;99.90;;;;;;5054596;28;20431;-86
2022/03/07 08:40:00;;;;;;;9.07;6.90;;;1.90;99.90;;;;;;5057218;28;20208;-87
2022/03/07 08:42:29;;;;;;;8.13;7.07;;;2.10;99.90;;;;;;5074028;28;20454;-86
2022/03/07 08:44:56;;;;;;;7.17;6.47;;;2.10;99.90;;;;;;5095743;28;20480;-87
2022/03/07 08:47:26;;;;;;;10.50;6.47;;;2.20;99.90;;;;;;5095174;28;20430;-80
2022/03/07 08:49:53;;;;;;;11.23;6.00;;;2.30;99.90;;;;;;5094474;28;20438;-74
2022/03/07 08:52:20;;;;;;;8.03;6.10;;;2.40;99.90;;;;;;5094159;28;20482;-74
2022/03/07 08:54:47;;;;;;;10.43;5.47;;;2.40;99.90;;;;;;5089441;28;20442;-74
2022/03/07 08:57:15;;;;;;;6.43;5.32;;;2.30;99.90;;;;;;5073308;28;20396;-75
2022/03/07 08:59:44;;;;;;;7.03;5.57;;;2.20;99.90;;;;;;5073611;28;20633;-75
2022/03/07 09:02:11;;;;;;;7.77;5.73;;;2.40;99.90;;;;;;5073691;28;20461;-74
2022/03/07 09:04:39;;;;;;;6.03;4.30;;;2.40;99.90;;;;;;5073366;28;20934;-74
2022/03/07 09:07:07;;;;;;;6.43;5.33;;;2.50;99.90;;;;;;5073401;28;20450;-73
2022/03/07 09:09:33;;;;;;;7.23;5.00;;;2.50;99.90;;;;;;5074055;28;20911;-77
2022/03/07 09:12:00;;;;;;;8.93;4.80;;;2.60;99.90;;;;;;5094125;28;20526;-73
2022/03/07 09:14:27;;;;;;;6.50;4.80;;;2.60;99.90;;;;;;5094037;28;20866;-73
2022/03/07 09:16:56;;;;;;;8.07;5.20;;;2.60;99.90;;;;;;5090114;28;20663;-74
2022/03/07 09:19:22;;;;;;;5.20;4.70;;;2.50;99.90;;;;;;5073683;28;20430;-85
2022/03/07 09:21:49;;;;;;;6.53;4.57;;;2.60;99.90;;;;;;5073192;28;20466;-75
2022/03/07 09:24:16;;;;;;;4.80;4.23;;;2.70;99.90;;;;;;5072248;28;20956;-74
2022/03/07 09:26:43;;;;;;;4.70;4.30;;;2.70;99.90;;;;;;5072916;28;20503;-74
2022/03/07 09:29:10;;;;;;;4.93;4.27;;;2.90;99.90;;;;;;5073536;28;20446;-74
2022/03/07 09:31:37;;;;;;;5.03;4.23;;;3.00;99.90;;;;;;5073186;28;20451;-75
2022/03/07 09:34:06;;;;;;;5.93;3.63;;;2.90;99.90;;;;;;5054168;28;20487;-73
2022/03/07 09:36:35;;;;;;;6.77;4.20;;;3.00;99.90;;;;;;5052605;28;20931;-74
2022/03/07 09:39:01;;;;;;;5.93;4.40;;;3.20;99.90;;;;;;5053713;28;20463;-75
2022/03/07 09:41:28;;;;;;;4.50;4.10;;;3.20;99.90;;;;;;5053053;28;20441;-73
2022/03/07 09:43:55;;;;;;;6.83;3.70;;;3.10;99.90;;;;;;5053318;28;20673;-74
2022/03/07 09:46:22;;;;;;;4.70;3.60;;;3.30;99.90;;;;;;5053580;28;20440;-79
2022/03/07 09:48:49;;;;;;;4.67;3.60;;;3.20;99.90;;;;;;5055086;28;20454;-84
2022/03/07 09:51:17;;;;;;;4.10;3.80;;;3.20;99.90;;;;;;5053295;28;20463;-81
2022/03/07 09:53:44;;;;;;;4.27;3.87;;;3.30;99.90;;;;;;5053508;28;20483;-79
2022/03/07 09:56:11;;;;;;;5.13;4.60;;;3.40;99.90;;;;;;5053355;28;20439;-76
2022/03/07 09:58:38;;;;;;;4.40;4.00;;;3.50;99.90;;;;;;5053413;28;20473;-82
2022/03/07 10:01:07;;;;;;;5.43;4.47;;;3.40;99.90;;;;;;5053322;28;20447;-79
2022/03/07 10:03:34;;;;;;;6.10;3.63;;;3.60;99.90;;;;;;5053600;28;20462;-79
2022/03/07 10:06:01;;;;;;;5.57;4.03;;;3.70;99.90;;;;;;5053214;28;20436;-80
2022/03/07 10:08:30;;;;;;;11.80;4.10;;;3.60;99.90;;;;;;5053563;28;20789;-81
2022/03/07 10:10:57;;;;;;;8.43;3.87;;;3.60;99.90;;;;;;5053519;28;20436;-80
2022/03/07 10:13:25;;;;;;;5.17;4.00;;;3.70;99.90;;;;;;5053178;28;20494;-81
2022/03/07 10:15:58;;;;;;;8.27;4.27;;;3.90;99.90;;;;;;5053424;28;20497;-78
2022/03/07 10:18:25;;;;;;;5.23;3.50;;;3.90;99.90;;;;;;5053376;28;20443;-79
2022/03/07 10:20:55;;;;;;;3.60;3.30;;;3.90;99.90;;;;;;5052202;28;20447;-83
2022/03/07 10:23:24;;;;;;;3.97;3.60;;;3.80;99.90;;;;;;5053234;28;20531;-85
2022/03/07 10:25:52;;;;;;;12.97;4.03;;;3.70;99.90;;;;;;5053124;28;20493;-79
2022/03/07 10:28:19;;;;;;;5.03;4.00;;;3.80;99.90;;;;;;5053293;28;20642;-78
2022/03/07 10:30:47;;;;;;;4.10;3.80;;;4.10;99.90;;;;;;5052971;28;20526;-78
2022/03/07 10:33:15;;;;;;;7.43;3.63;;;4.20;99.90;;;;;;5053089;28;20990;-81
2022/03/07 10:35:43;;;;;;;9.33;4.23;;;4.00;99.90;;;;;;5052735;28;20962;-77
2022/03/07 10:38:12;;;;;;;3.93;3.20;;;4.20;99.90;;;;;;5053054;28;20444;-75
2022/03/07 10:40:40;;;;;;;3.87;3.57;;;4.30;99.90;;;;;;5053153;28;20447;-75
2022/03/07 10:43:09;;;;;;;3.97;3.30;;;4.10;99.90;;;;;;5052860;28;20522;-82
2022/03/07 10:45:46;;;;;;;3.70;3.50;;;4.20;99.90;;;;;;5053046;28;20451;-73
2022/03/07 10:48:14;;;;;;;5.30;3.97;;;4.30;99.90;;;;;;5052193;28;21374;-74
2022/03/07 10:50:42;;;;;;;5.93;3.97;;;4.40;99.90;;;;;;5068899;28;20940;-73
2022/03/07 10:53:09;;;;;;;5.32;4.00;;;4.40;99.90;;;;;;5071359;28;20436;-74
2022/03/07 10:55:39;;;;;;;6.20;3.87;;;4.60;99.90;;;;;;5072830;28;20201;-74
2022/03/07 10:58:09;;;;;;;7.67;4.40;;;4.70;99.90;;;;;;5072665;28;20442;-74
2022/03/07 11:00:48;;;;;;;5.30;4.07;;;4.70;99.90;;;;;;5072569;28;20453;-74
2022/03/07 11:03:19;;;;;;;4.27;3.87;;;4.60;99.90;;;;;;5072081;28;20461;-73
2022/03/07 11:05:46;;;;;;;4.27;3.97;;;4.60;99.90;;;;;;5072837;28;20525;-73
2022/03/07 11:08:15;;;;;;;3.87;3.57;;;4.70;99.90;;;;;;5072590;28;20469;-86
2022/03/07 11:10:45;;;;;;;7.30;4.10;;;4.70;99.90;;;;;;5072792;28;20434;-84
2022/03/07 11:13:14;;;;;;;5.40;3.97;;;4.60;99.90;;;;;;5072487;28;20569;-73
2022/03/07 11:15:42;;;;;;;8.38;4.70;;;4.60;99.90;;;;;;5072418;28;20436;-74
2022/03/07 11:18:11;;;;;;;4.53;4.13;;;4.90;99.90;;;;;;5055580;28;20264;-74
2022/03/07 11:20:40;;;;;;;5.07;4.33;;;5.00;99.90;;;;;;5052836;28;20448;-83
2022/03/07 11:23:07;;;;;;;4.77;4.23;;;4.90;99.90;;;;;;5052313;28;20450;-73
2022/03/07 11:25:35;;;;;;;5.00;4.60;;;5.00;99.90;;;;;;5052686;28;20438;-74
2022/03/07 11:28:02;;;;;;;8.60;4.23;;;4.70;99.90;;;;;;5052662;28;20477;-74
2022/03/07 11:30:35;;;;;;;9.97;4.30;;;4.80;99.90;;;;;;5052501;28;20915;-73
2022/03/07 11:33:10;;;;;;;4.33;3.93;;;4.90;99.90;;;;;;5055428;28;20934;-75
2022/03/07 11:35:38;;;;;;;4.43;3.83;;;4.90;99.90;;;;;;5056266;28;20431;-73
2022/03/07 11:38:12;;;;;;;6.43;4.20;;;4.90;99.90;;;;;;5056070;28;20428;-74
2022/03/07 11:40:59;;;;;;;6.13;4.40;;;5.00;99.90;;;;;;5055891;28;20458;-86
2022/03/07 11:43:27;;;;;;;5.87;4.00;;;5.10;99.90;;;;;;5055738;28;20456;-76
2022/03/07 11:45:57;;;;;;;4.30;3.90;;;5.10;99.90;;;;;;5055603;28;20526;-73
2022/03/07 11:48:24;;;;;;;8.07;4.67;;;5.10;99.90;;;;;;5055471;28;20906;-75
2022/03/07 11:50:51;;;;;;;5.73;3.83;;;5.20;99.90;;;;;;5055995;28;20455;-74
2022/03/07 11:53:19;;;;;;;5.27;3.80;;;5.30;99.90;;;;;;5055373;28;20479;-75
2022/03/07 11:55:48;;;;;;;5.40;4.33;;;5.30;99.90;;;;;;5055657;28;20443;-76
2022/03/07 11:58:25;;;;;;;4.90;4.50;;;5.20;99.90;;;;;;5055614;28;20427;-73
2022/03/07 12:01:04;;;;;;;6.00;4.50;;;5.20;99.90;;;;;;5070455;28;20439;-72
2022/03/07 12:03:33;;;;;;;3.90;3.60;;;5.30;99.90;;;;;;5074948;28;20469;-76
2022/03/07 12:06:06;;;;;;;8.13;3.93;;;5.40;99.90;;;;;;5075020;28;20470;-76
2022/03/07 12:08:43;;;;;;;4.10;3.80;;;5.50;99.90;;;;;;5075248;28;20447;-73
2022/03/07 12:11:23;;;;;;;6.57;4.20;;;5.60;99.90;;;;;;5075096;28;20474;-75
2022/03/07 12:13:51;;;;;;;9.50;3.93;;;5.50;99.90;;;;;;5075182;28;20467;-72
2022/03/07 12:16:27;;;;;;;9.80;4.20;;;5.60;99.90;;;;;;5074482;28;20473;-74
2022/03/07 12:18:55;;;;;;;4.43;4.10;;;5.70;99.90;;;;;;5073741;28;20442;-73
2022/03/07 12:21:26;;;;;;;6.07;5.47;;;5.70;99.90;;;;;;5075052;28;20453;-75
2022/03/07 12:23:53;;;;;;;6.83;3.80;;;5.80;99.80;;;;;;5074159;28;20446;-75
2022/03/07 12:26:20;;;;;;;4.20;3.80;;;5.90;99.90;;;;;;5074358;28;20440;-72
2022/03/07 12:28:47;;;;;;;5.10;3.70;;;5.80;99.80;;;;;;5074090;28;20477;-74
2022/03/07 12:31:15;;;;;;;10.10;3.77;;;5.80;99.80;;;;;;5074213;28;20792;-72
2022/03/07 12:33:44;;;;;;;4.93;3.70;;;5.80;99.90;;;;;;5074526;28;20744;-71
2022/03/07 12:36:14;;;;;;;3.10;2.90;;;5.70;99.40;;;;;;5074679;28;20803;-77
2022/03/07 12:38:48;;;;;;;7.23;4.03;;;5.70;99.40;;;;;;5074387;28;20520;-81
2022/03/07 12:41:16;;;;;;;6.93;4.40;;;5.80;99.70;;;;;;5074452;28;20993;-72
2022/03/07 12:43:45;;;;;;;14.17;4.67;;;5.80;99.70;;;;;;5073981;28;20206;-80
2022/03/07 12:46:15;;;;;;;5.73;4.03;;;5.90;99.90;;;;;;5074348;28;20300;-73
2022/03/07 12:48:45;;;;;;;10.50;4.37;;;6.10;99.90;;;;;;5074077;28;20937;-74
2022/03/07 12:51:13;;;;;;;3.87;3.50;;;6.10;99.90;;;;;;5073788;28;20221;-72
2022/03/07 12:53:48;;;;;;;5.82;4.20;;;6.30;99.90;;;;;;5073571;28;20444;-75
2022/03/07 12:56:16;;;;;;;4.87;4.20;;;6.20;99.90;;;;;;5072469;28;20212;-83
2022/03/07 12:58:52;;;;;;;4.13;3.83;;;6.20;99.70;;;;;;5067771;28;20203;-74
2022/03/07 13:01:19;;;;;;;7.13;5.13;;;6.00;99.60;;;;;;5060080;28;20209;-73